createdAt,value
2022-12-11T00:01:46.285Z,26.90
2022-12-11T00:04:32.178Z,25.90
2022-12-11T00:07:17.384Z,25.40
2022-12-11T00:10:02.258Z,27.17
2022-12-11T00:12:47.655Z,29.47
2022-12-11T00:15:33.062Z,29.33
2022-12-11T00:18:18.498Z,28.87
2022-12-11T00:21:05.823Z,30.10
2022-12-11T00:23:51.253Z,30.43
2022-12-11T00:26:36.404Z,29.23
2022-12-11T00:29:21.475Z,28.97
2022-12-11T00:32:06.427Z,30.07
2022-12-11T00:34:51.667Z,30.10
2022-12-11T00:37:36.725Z,31.00
2022-12-11T00:40:22.184Z,31.07
2022-12-11T00:43:07.063Z,30.20
2022-12-11T00:45:52.653Z,30.10
2022-12-11T00:48:38.613Z,30.37
2022-12-11T00:51:23.958Z,30.37
2022-12-11T00:54:09.231Z,29.57
2022-12-11T00:56:55.975Z,29.97
2022-12-11T00:59:41.221Z,32.47
2022-12-11T01:02:26.532Z,32.43
2022-12-11T01:05:11.973Z,30.10
2022-12-11T01:07:57.586Z,32.43
2022-12-11T01:10:42.966Z,32.07
2022-12-11T01:13:28.377Z,32.27
2022-12-11T01:16:15.665Z,32.80
2022-12-11T01:19:01.109Z,33.10
2022-12-11T01:21:46.164Z,32.27
2022-12-11T01:24:31.536Z,33.80
2022-12-11T01:27:17.035Z,32.57
2022-12-11T01:30:02.378Z,31.40
2022-12-11T01:32:48.519Z,32.70
2022-12-11T01:35:34.088Z,33.47
2022-12-11T01:38:19.503Z,32.80
2022-12-11T01:41:04.895Z,32.37
2022-12-11T01:43:57.133Z,33.40
2022-12-11T01:46:43.102Z,31.63
2022-12-11T01:49:29.507Z,32.57
2022-12-11T01:52:19.434Z,31.93
2022-12-11T01:55:05.778Z,32.93
2022-12-11T01:57:52.160Z,31.00
2022-12-11T02:00:37.624Z,31.77
2022-12-11T02:03:23.292Z,31.10
2022-12-11T02:06:47.473Z,31.80
2022-12-11T02:09:36.070Z,33.53
2022-12-11T02:12:51.316Z,33.00
2022-12-11T02:15:51.348Z,33.37
2022-12-11T02:18:54.203Z,33.63
2022-12-11T02:21:50.712Z,31.50
2022-12-11T02:25:01.848Z,32.13
2022-12-11T02:27:55.713Z,34.13
2022-12-11T02:30:44.821Z,33.67
2022-12-11T02:33:38.929Z,33.77
2022-12-11T02:36:28.565Z,35.17
2022-12-11T02:39:15.609Z,35.37
2022-12-11T02:42:02.742Z,35.13
2022-12-11T02:44:49.862Z,36.03
2022-12-11T02:47:37.086Z,34.80
2022-12-11T02:50:23.347Z,36.60
2022-12-11T02:53:14.387Z,36.37
2022-12-11T02:56:12.932Z,37.53
2022-12-11T02:59:04.331Z,35.57
2022-12-11T03:01:50.414Z,36.93
2022-12-11T03:04:36.493Z,35.57
2022-12-11T03:07:25.936Z,34.33
2022-12-11T03:10:14.799Z,36.33
2022-12-11T03:13:01.289Z,36.90
2022-12-11T03:16:05.054Z,36.70
2022-12-11T03:19:16.217Z,37.93
2022-12-11T03:22:12.599Z,39.80
2022-12-11T03:25:20.517Z,38.27
2022-12-11T03:28:19.960Z,39.37
2022-12-11T03:31:13.306Z,40.80
2022-12-11T03:34:02.886Z,41.70
2022-12-11T03:36:50.261Z,40.13
2022-12-11T03:39:45.979Z,42.50
2022-12-11T03:42:31.896Z,40.10
2022-12-11T03:45:19.230Z,42.60
2022-12-11T03:48:05.814Z,40.67
2022-12-11T03:50:51.862Z,41.43
2022-12-11T03:53:38.164Z,42.20
2022-12-11T03:56:27.515Z,42.83
2022-12-11T03:59:12.701Z,43.70
2022-12-11T04:01:58.319Z,43.17
2022-12-11T04:04:43.817Z,42.87
2022-12-11T04:07:29.266Z,42.20
2022-12-11T04:10:14.871Z,43.93
2022-12-11T04:13:00.069Z,42.77
2022-12-11T04:15:45.514Z,43.97
2022-12-11T04:18:30.958Z,44.40
2022-12-11T04:21:19.290Z,42.47
2022-12-11T04:24:05.239Z,44.53
2022-12-11T04:26:50.123Z,43.77
2022-12-11T04:29:35.457Z,44.37
2022-12-11T04:32:20.982Z,47.13
2022-12-11T04:35:08.731Z,47.63
2022-12-11T04:37:54.328Z,46.80
2022-12-11T04:40:39.886Z,47.67
2022-12-11T04:43:25.201Z,45.87
2022-12-11T04:46:20.335Z,45.00
2022-12-11T04:49:05.715Z,44.07
2022-12-11T04:51:50.535Z,40.63
2022-12-11T04:54:35.953Z,37.03
2022-12-11T04:57:21.099Z,34.83
2022-12-11T05:00:09.097Z,33.90
2022-12-11T05:02:54.677Z,34.17
2022-12-11T05:05:39.969Z,35.67
2022-12-11T05:08:26.717Z,34.83
2022-12-11T05:11:14.953Z,31.07
2022-12-11T05:14:00.299Z,28.90
2022-12-11T05:16:45.752Z,29.13
2022-12-11T05:19:30.965Z,26.20
2022-12-11T05:22:16.640Z,27.43
2022-12-11T05:25:01.620Z,28.33
2022-12-11T05:27:46.569Z,26.80
2022-12-11T05:30:32.585Z,27.93
2022-12-11T05:33:17.536Z,27.20
2022-12-11T05:36:03.506Z,27.83
2022-12-11T05:38:49.632Z,29.07
2022-12-11T05:41:35.016Z,29.00
2022-12-11T05:44:19.923Z,28.53
2022-12-11T05:47:05.471Z,30.47
2022-12-11T05:49:51.110Z,29.63
2022-12-11T05:52:36.418Z,28.80
2022-12-11T05:55:21.850Z,29.37
2022-12-11T05:58:07.391Z,30.43
2022-12-11T06:00:52.562Z,29.17
2022-12-11T06:03:38.314Z,31.20
2022-12-11T06:06:24.786Z,29.97
2022-12-11T06:09:14.303Z,31.43
2022-12-11T06:11:59.604Z,31.67
2022-12-11T06:14:47.101Z,30.30
2022-12-11T06:17:34.190Z,31.47
2022-12-11T06:20:19.234Z,32.13
2022-12-11T06:23:05.196Z,32.60
2022-12-11T06:25:50.643Z,32.80
2022-12-11T06:28:36.275Z,32.67
2022-12-11T06:31:21.632Z,32.77
2022-12-11T06:34:07.175Z,32.67
2022-12-11T06:36:53.898Z,33.67
2022-12-11T06:39:39.054Z,31.93
2022-12-11T06:42:24.554Z,32.03
2022-12-11T06:45:11.000Z,32.07
2022-12-11T06:47:56.433Z,32.17
2022-12-11T06:50:42.040Z,34.77
2022-12-11T06:53:27.170Z,34.17
2022-12-11T06:56:15.136Z,32.33
2022-12-11T06:59:05.728Z,32.27
2022-12-11T07:01:52.634Z,34.63
2022-12-11T07:04:38.100Z,35.00
2022-12-11T07:07:23.852Z,35.80
2022-12-11T07:10:10.731Z,34.87
2022-12-11T07:12:58.513Z,36.57
2022-12-11T07:15:44.105Z,35.60
2022-12-11T07:18:28.952Z,37.37
2022-12-11T07:21:14.207Z,34.37
2022-12-11T07:24:00.633Z,33.80
2022-12-11T07:26:46.271Z,34.00
2022-12-11T07:29:31.985Z,34.30
2022-12-11T07:32:17.266Z,35.30
2022-12-11T07:35:03.767Z,34.87
2022-12-11T07:37:48.890Z,32.73
2022-12-11T07:40:34.191Z,32.87
2022-12-11T07:43:20.729Z,30.37
2022-12-11T07:46:10.630Z,30.73
2022-12-11T07:48:56.533Z,29.93
2022-12-11T07:51:42.527Z,29.13
2022-12-11T07:54:27.596Z,27.20
2022-12-11T07:57:15.215Z,25.47
2022-12-11T08:00:00.350Z,27.07
2022-12-11T08:02:45.895Z,27.47
2022-12-11T08:05:32.312Z,28.97
2022-12-11T08:08:18.980Z,29.17
2022-12-11T08:11:05.081Z,27.13
2022-12-11T08:13:51.810Z,28.00
2022-12-11T08:16:37.780Z,29.53
2022-12-11T08:19:23.069Z,24.67
2022-12-11T08:22:08.862Z,25.10
2022-12-11T08:24:53.843Z,24.47
2022-12-11T08:27:39.343Z,30.27
2022-12-11T08:30:25.103Z,32.33
2022-12-11T08:33:10.445Z,34.20
2022-12-11T08:35:55.932Z,31.27
2022-12-11T08:38:41.935Z,32.00
2022-12-11T08:41:29.545Z,33.77
2022-12-11T08:44:17.218Z,33.13
2022-12-11T08:47:02.147Z,33.40
2022-12-11T08:49:48.727Z,28.83
2022-12-11T08:52:35.036Z,23.70
2022-12-11T08:55:20.648Z,24.33
2022-12-11T08:58:08.254Z,24.70
2022-12-11T09:00:53.491Z,24.00
2022-12-11T09:03:40.177Z,23.27
2022-12-11T09:06:28.167Z,22.10
2022-12-11T09:09:13.153Z,23.83
2022-12-11T09:11:58.857Z,22.53
2022-12-11T09:14:44.356Z,19.60
2022-12-11T09:17:29.509Z,20.50
2022-12-11T09:20:14.596Z,20.07
2022-12-11T09:23:02.600Z,21.60
2022-12-11T09:25:47.752Z,22.00
2022-12-11T09:28:33.839Z,22.37
2022-12-11T09:31:21.662Z,20.23
2022-12-11T09:34:11.513Z,22.20
2022-12-11T09:36:56.777Z,20.87
2022-12-11T09:39:44.674Z,27.37
2022-12-11T09:42:48.687Z,23.67
2022-12-11T09:45:33.891Z,21.60
2022-12-11T09:48:23.089Z,22.93
2022-12-11T09:51:27.480Z,23.40
2022-12-11T09:54:13.839Z,23.80
2022-12-11T09:57:38.068Z,21.67
2022-12-11T10:00:31.234Z,21.97
2022-12-11T10:03:31.440Z,22.13
2022-12-11T10:06:19.552Z,22.27
2022-12-11T10:09:16.346Z,21.13
2022-12-11T10:12:19.926Z,23.57
2022-12-11T10:15:17.081Z,20.53
2022-12-11T10:18:09.431Z,22.70
2022-12-11T10:20:55.006Z,23.83
2022-12-11T10:23:55.464Z,23.03
2022-12-11T10:26:40.842Z,23.37
2022-12-11T10:29:26.256Z,24.13
2022-12-11T10:32:39.506Z,23.67
2022-12-11T10:35:36.337Z,23.60
2022-12-11T10:38:24.482Z,23.77
2022-12-11T10:41:22.412Z,22.80
2022-12-11T10:44:39.850Z,24.00
2022-12-11T10:47:25.590Z,23.37
2022-12-11T10:50:26.113Z,22.23
2022-12-11T10:53:21.789Z,21.80
2022-12-11T10:56:08.170Z,24.20
2022-12-11T10:58:54.823Z,23.63
2022-12-11T11:01:40.319Z,22.37
2022-12-11T11:04:36.771Z,24.40
2022-12-11T11:07:33.182Z,23.03
2022-12-11T11:10:19.794Z,23.77
2022-12-11T11:13:04.693Z,21.70
2022-12-11T11:16:03.257Z,22.27
2022-12-11T11:18:55.962Z,22.07
2022-12-11T11:21:53.171Z,23.50
2022-12-11T11:24:47.372Z,25.57
2022-12-11T11:27:38.807Z,22.77
2022-12-11T11:30:30.647Z,23.77
2022-12-11T11:33:19.774Z,24.67
2022-12-11T11:36:08.333Z,23.27
2022-12-11T11:39:02.409Z,24.20
2022-12-11T11:42:15.543Z,23.37
2022-12-11T11:45:15.749Z,25.00
2022-12-11T11:48:32.395Z,24.33
2022-12-11T11:51:26.850Z,25.30
2022-12-11T11:54:35.452Z,27.17
2022-12-11T11:57:32.302Z,28.03
2022-12-11T12:00:31.737Z,28.10
2022-12-11T12:03:22.677Z,32.43
2022-12-11T12:06:21.321Z,35.80
2022-12-11T12:09:43.526Z,28.73
2022-12-11T12:12:46.820Z,26.90
2022-12-11T12:15:54.122Z,33.00
2022-12-11T12:18:52.351Z,30.93
2022-12-11T12:21:38.193Z,28.20
2022-12-11T12:24:43.499Z,27.60
2022-12-11T12:28:07.894Z,28.43
2022-12-11T12:31:08.557Z,25.20
2022-12-11T12:34:20.343Z,28.07
2022-12-11T12:37:20.614Z,29.07
2022-12-11T12:40:12.750Z,28.43
2022-12-11T12:43:25.815Z,30.10
2022-12-11T12:46:26.308Z,34.13
2022-12-11T12:49:35.396Z,29.93
2022-12-11T12:52:32.361Z,30.20
2022-12-11T12:55:27.651Z,29.10
2022-12-11T12:58:26.063Z,28.40
2022-12-11T13:01:20.554Z,31.90
2022-12-11T13:04:16.675Z,32.17
2022-12-11T13:07:22.929Z,35.17
2022-12-11T13:10:22.575Z,28.97
2022-12-11T13:13:53.202Z,28.60
2022-12-11T13:16:45.528Z,26.87
2022-12-11T13:19:42.097Z,27.97
2022-12-11T13:22:27.556Z,27.23
2022-12-11T13:25:46.182Z,28.33
2022-12-11T13:28:48.241Z,29.17
2022-12-11T13:31:38.870Z,29.23
2022-12-11T13:34:27.264Z,28.33
2022-12-11T13:37:28.096Z,28.17
2022-12-11T13:40:24.497Z,31.30
2022-12-11T13:43:24.125Z,28.50
2022-12-11T13:46:13.292Z,26.27
2022-12-11T13:49:02.150Z,27.80
2022-12-11T13:51:54.126Z,27.00
2022-12-11T13:54:48.382Z,26.80
2022-12-11T13:57:33.927Z,28.77
2022-12-11T14:00:24.949Z,28.90
2022-12-11T14:03:11.057Z,28.90
2022-12-11T14:05:56.509Z,29.17
2022-12-11T14:08:44.029Z,31.67
2022-12-11T14:11:46.034Z,28.10
2022-12-11T14:14:44.711Z,29.90
2022-12-11T14:17:34.318Z,31.17
2022-12-11T14:20:23.435Z,28.83
2022-12-11T14:23:18.566Z,29.20
2022-12-11T14:26:13.192Z,27.83
2022-12-11T14:28:58.493Z,30.77
2022-12-11T14:31:44.494Z,29.80
2022-12-11T14:34:38.751Z,31.10
2022-12-11T14:37:26.518Z,29.90
2022-12-11T14:40:18.442Z,31.70
2022-12-11T14:43:13.664Z,33.07
2022-12-11T14:46:07.710Z,34.30
2022-12-11T14:49:02.504Z,33.63
2022-12-11T14:51:55.510Z,32.47
2022-12-11T14:54:46.281Z,31.53
2022-12-11T14:57:33.276Z,31.97
2022-12-11T15:00:38.084Z,32.70
2022-12-11T15:03:24.747Z,32.30
2022-12-11T15:06:29.473Z,35.10
2022-12-11T15:09:31.303Z,37.90
2022-12-11T15:12:19.186Z,32.97
2022-12-11T15:15:06.588Z,32.03
2022-12-11T15:17:53.008Z,31.50
2022-12-11T15:20:38.450Z,31.40
2022-12-11T15:23:23.820Z,33.03
2022-12-11T15:26:08.978Z,36.43
2022-12-11T15:29:00.195Z,31.93
2022-12-11T15:31:45.348Z,31.30
2022-12-11T15:34:42.104Z,32.37
2022-12-11T15:37:32.438Z,38.73
2022-12-11T15:40:17.936Z,35.57
2022-12-11T15:43:04.715Z,35.07
2022-12-11T15:45:50.560Z,33.83
2022-12-11T15:48:35.813Z,36.60
2022-12-11T15:51:20.904Z,35.13
2022-12-11T15:54:06.449Z,36.77
2022-12-11T15:56:51.722Z,37.43
2022-12-11T15:59:36.707Z,40.57
2022-12-11T16:02:22.207Z,35.10
2022-12-11T16:05:07.741Z,32.90
2022-12-11T16:07:53.315Z,34.37
2022-12-11T16:10:38.475Z,32.97
2022-12-11T16:13:23.870Z,33.00
2022-12-11T16:16:09.161Z,33.53
2022-12-11T16:18:54.439Z,33.83
2022-12-11T16:21:39.930Z,32.83
2022-12-11T16:24:25.465Z,33.27
2022-12-11T16:27:11.111Z,33.20
2022-12-11T16:29:56.342Z,34.80
2022-12-11T16:32:42.064Z,34.90
2022-12-11T16:35:28.774Z,34.47
2022-12-11T16:38:14.241Z,36.07
2022-12-11T16:41:00.694Z,36.80
2022-12-11T16:43:45.998Z,35.20
2022-12-11T16:46:31.594Z,34.70
2022-12-11T16:49:17.554Z,38.63
2022-12-11T16:52:02.638Z,39.60
2022-12-11T16:54:47.542Z,37.63
2022-12-11T16:57:32.819Z,35.00
2022-12-11T17:00:18.293Z,33.27
2022-12-11T17:03:03.943Z,39.53
2022-12-11T17:05:49.272Z,33.73
2022-12-11T17:08:34.892Z,34.37
2022-12-11T17:11:22.305Z,37.10
2022-12-11T17:14:10.151Z,35.43
2022-12-11T17:16:56.274Z,33.37
2022-12-11T17:19:41.150Z,35.20
2022-12-11T17:22:32.205Z,34.63
2022-12-11T17:25:17.267Z,35.47
2022-12-11T17:28:05.027Z,34.03
2022-12-11T17:30:50.359Z,34.57
2022-12-11T17:33:35.555Z,33.00
2022-12-11T17:36:21.887Z,33.13
2022-12-11T17:39:07.482Z,32.33
2022-12-11T17:41:52.538Z,30.83
2022-12-11T17:44:38.123Z,30.93
2022-12-11T17:47:23.398Z,31.13
2022-12-11T17:50:09.353Z,29.80
2022-12-11T17:52:54.492Z,29.87
2022-12-11T17:55:41.268Z,30.00
2022-12-11T17:58:27.113Z,29.47
2022-12-11T18:01:13.158Z,31.17
2022-12-11T18:03:59.835Z,31.67
2022-12-11T18:06:44.988Z,32.63
2022-12-11T18:09:30.308Z,31.47
2022-12-11T18:12:15.676Z,31.50
2022-12-11T18:15:01.610Z,31.73
2022-12-11T18:17:47.044Z,33.27
2022-12-11T18:20:35.547Z,33.27
2022-12-11T18:23:20.860Z,32.70
2022-12-11T18:26:06.220Z,33.20
2022-12-11T18:28:51.900Z,33.43
2022-12-11T18:31:42.411Z,33.17
2022-12-11T18:34:27.872Z,33.53
2022-12-11T18:37:13.244Z,32.43
2022-12-11T18:39:58.673Z,31.27
2022-12-11T18:42:44.033Z,30.77
2022-12-11T18:45:29.519Z,33.40
2022-12-11T18:48:15.121Z,33.43
2022-12-11T18:51:00.167Z,33.60
2022-12-11T18:53:45.783Z,32.80
2022-12-11T18:56:31.047Z,33.93
2022-12-11T18:59:16.029Z,31.73
2022-12-11T19:02:01.415Z,31.00
2022-12-11T19:04:47.046Z,32.60
2022-12-11T19:07:32.417Z,35.67
2022-12-11T19:10:17.750Z,34.00
2022-12-11T19:13:03.203Z,35.30
2022-12-11T19:15:48.724Z,37.37
2022-12-11T19:18:34.257Z,34.83
2022-12-11T19:21:19.528Z,36.70
2022-12-11T19:24:06.263Z,36.77
2022-12-11T19:26:52.018Z,36.93
2022-12-11T19:29:36.967Z,34.00
2022-12-11T19:32:22.607Z,34.27
2022-12-11T19:35:07.911Z,32.60
2022-12-11T19:37:53.420Z,33.17
2022-12-11T19:40:40.892Z,34.07
2022-12-11T19:43:25.894Z,33.80
2022-12-11T19:46:12.551Z,34.43
2022-12-11T19:48:58.790Z,34.33
2022-12-11T19:51:44.426Z,36.53
2022-12-11T19:54:29.360Z,34.30
2022-12-11T19:57:14.690Z,35.93
2022-12-11T20:00:00.901Z,34.10
2022-12-11T20:02:46.085Z,33.53
2022-12-11T20:05:31.474Z,34.03
2022-12-11T20:11:22.607Z,32.97
2022-12-11T20:14:08.380Z,32.87
2022-12-11T20:19:59.240Z,32.00
2022-12-11T20:22:44.631Z,44.27
2022-12-11T20:25:41.971Z,36.70
2022-12-11T20:28:27.159Z,34.10
2022-12-11T20:31:20.285Z,36.37
2022-12-11T20:34:06.953Z,34.90
2022-12-11T20:36:52.358Z,35.47
2022-12-11T20:39:40.466Z,34.80
2022-12-11T20:42:26.586Z,36.93
2022-12-11T20:45:12.077Z,33.13
2022-12-11T20:47:57.467Z,33.30
2022-12-11T20:50:43.020Z,32.03
2022-12-11T20:53:28.101Z,33.87
2022-12-11T20:56:16.164Z,32.93
2022-12-11T20:59:01.433Z,31.67
2022-12-11T21:01:46.881Z,33.87
2022-12-11T21:04:32.357Z,32.80
2022-12-11T21:07:17.526Z,31.73
2022-12-11T21:10:03.515Z,30.30
2022-12-11T21:12:49.026Z,28.37
2022-12-11T21:15:39.097Z,31.10
2022-12-11T21:18:24.451Z,29.23
2022-12-11T21:21:09.962Z,27.73
2022-12-11T21:23:54.808Z,30.60
2022-12-11T21:26:40.314Z,30.47
2022-12-11T21:29:26.985Z,28.83
2022-12-11T21:32:12.316Z,27.57
2022-12-11T21:34:57.237Z,29.83
2022-12-11T21:37:42.010Z,28.07
2022-12-11T21:40:28.195Z,27.27
2022-12-11T21:43:13.318Z,28.43
2022-12-11T21:46:01.757Z,28.23
2022-12-11T21:48:48.321Z,28.57
2022-12-11T21:51:38.707Z,29.03
2022-12-11T21:54:25.431Z,28.90
2022-12-11T21:57:10.871Z,30.23
2022-12-11T21:59:55.766Z,31.50
2022-12-11T22:02:41.580Z,33.53
2022-12-11T22:05:26.689Z,33.53
2022-12-11T22:08:11.991Z,35.40
2022-12-11T22:10:57.284Z,37.80
2022-12-11T22:13:42.749Z,49.00
2022-12-11T22:16:28.698Z,38.60
2022-12-11T22:19:14.202Z,37.43
2022-12-11T22:21:59.596Z,36.50
2022-12-11T22:24:45.265Z,31.73
2022-12-11T22:27:30.364Z,31.67
2022-12-11T22:30:15.858Z,32.23
2022-12-11T22:33:01.146Z,32.67
2022-12-11T22:35:46.602Z,32.13
2022-12-11T22:38:32.253Z,32.60
2022-12-11T22:41:28.133Z,34.93
2022-12-11T22:44:16.780Z,33.13
2022-12-11T22:47:02.127Z,32.90
2022-12-11T22:49:47.817Z,33.00
2022-12-11T22:52:33.207Z,33.30
2022-12-11T22:55:18.718Z,33.27
2022-12-11T22:58:03.775Z,34.10
2022-12-11T23:00:49.178Z,35.07
2022-12-11T23:03:34.521Z,34.80
2022-12-11T23:06:23.046Z,33.87
2022-12-11T23:09:08.408Z,33.63
2022-12-11T23:11:53.520Z,34.43
2022-12-11T23:14:38.955Z,34.07
2022-12-11T23:17:24.495Z,34.27
2022-12-11T23:20:10.143Z,35.87
2022-12-11T23:22:55.628Z,33.53
2022-12-11T23:25:40.951Z,32.73
2022-12-11T23:28:26.254Z,31.13
2022-12-11T23:31:11.553Z,31.43
2022-12-11T23:33:57.234Z,31.40
2022-12-11T23:36:44.135Z,31.80
2022-12-11T23:39:29.336Z,31.57
2022-12-11T23:42:14.743Z,33.03
2022-12-11T23:45:00.117Z,31.70
2022-12-11T23:47:45.551Z,32.50
2022-12-11T23:50:30.881Z,32.43
2022-12-11T23:53:16.402Z,34.03
2022-12-11T23:56:07.964Z,32.60
2022-12-11T23:58:53.633Z,32.83
